Meteo Giornale » Osservazioni meteo Stati Uniti (USA) » St Cloud St Cloud
ore: 11:53 - Osservazioni Meteo St Cloud St Cloud
Lat. 45° 32' N Lon. 94° 3' W Alt. 312 metri s.l.m.
28 °C
Sereno
Temp. 24 Ore
19 °C
28 °C
Ovest/Nord-Ovest
13 Km/h
Dew point 18 °C
Umidità 54 %
Visibilità 10 Km
Il sole sorge alle ore 06:36
Il sole tramonta alle ore 19:56
| Data e Ora | Cielo e Fenomeni | T °C | DP °C | Um. % | Pres. hPa | Vis. km | Vento km/h | |
|---|---|---|---|---|---|---|---|---|
| Oggi h: 11:53 | Sereno | 28 | 18 | 54 | 1011 | 10 | O/NO 13 | |
| Oggi h: 10:53 | Sereno | 26 | 20 | 69 | 1011 | 10 | NO 18.5 | |
| Oggi h: 10:09 | Nuvoloso | 24 | 21 | 83 | 1010 | 10 | NO 13 | |
| Oggi h: 09:53 | Molto Nuvoloso | 23 | 21 | 88 | 1010 | 10 | NO 14.8 | |
| Oggi h: 09:21 | Coperto | 23 | 21 | 88 | 1010 | 14 | NO 11.1 | |
| Oggi h: 08:53 | Coperto | 22 | 21 | 94 | 1010 | 11 | N/NO 13 | |
| Oggi h: 08:33 | Foschia | 22 | 22 | 100 | 1009 | 10 | N/NO 13 | |
| Oggi h: 08:07 | Foschia | 21 | 21 | 100 | 1009 | 5 | N 0 | |
| Oggi h: 08:02 | Foschia | 21 | 21 | 100 | 1009 | 2 | N 0 | |
| Oggi h: 07:53 | Nebbia | 20 | 20 | 100 | 1009 | 2 | N 0 | |
| Oggi h: 07:18 | Nebbia | 19 | 19 | 100 | 1008 | 2 | N 0 | |
| Oggi h: 07:01 | Nebbia | 19 | 19 | 100 | 1008 | 0 | N 0 | |
| Oggi h: 06:53 | Nebbia | 19 | 19 | 100 | 1008 | 2 | N 0 | |
| Oggi h: 06:50 | Nebbia | 19 | 19 | 100 | 1008 | 2 | N 0 | |
| Oggi h: 06:24 | Nebbia | 19 | 19 | 100 | 1007 | 2 | N 0 | |
| Oggi h: 06:18 | Foschia | 20 | 20 | 100 | 1007 | 5 | N 0 | |
| Oggi h: 06:08 | Nebbia | 20 | 20 | 100 | 1007 | 2 | N 5.5 | |
| Oggi h: 05:53 | Nebbia | 19 | 19 | 100 | 1007 | 2 | N 0 | |
| Oggi h: 05:40 | Nebbia | 20 | 20 | 100 | 1007 | 2 | N 0 | |
| Oggi h: 05:32 | Nebbia | 20 | 20 | 100 | 1007 | 2 | N 0 | |
| Oggi h: 05:00 | Nebbia | 19 | 19 | 100 | 1007 | 2 | N 0 | |
| Oggi h: 04:53 | Foschia | 21 | 21 | 100 | 1007 | 5 | N 0 | |
| Oggi h: 04:51 | Foschia | 21 | 21 | 100 | 1007 | 2 | N 0 | |
| Oggi h: 03:53 | Foschia | 21 | 21 | 100 | 1007 | 8 | S/SE 9.3 | |
| Oggi h: 03:26 | Foschia | 21 | 21 | 100 | 1007 | 10 | S/SE 7.4 | |
| Oggi h: 02:53 | Nuvoloso | 22 | 21 | 94 | 1007 | 13 | S/SE 9.3 | |
| Oggi h: 01:53 | Sereno | 22 | 21 | 94 | 1007 | 0 | S/SE 11.1 | |
| Oggi h: 00:53 | Sereno | 23 | 21 | 88 | 1007 | 10 | SE 13 | |
| Ieri h: 23:53 | Sereno | 23 | 21 | 88 | 1007 | 10 | SE 11.1 | |
| Ieri h: 22:53 | Sereno | 23 | 21 | 88 | 1008 | 10 | E/SE 7.4 | |
| Ieri h: 21:53 | Sereno | 24 | 21 | 83 | 1008 | 10 | E 13 | |
| Ieri h: 20:53 | Nuvoloso | 24 | 21 | 83 | 1008 | 10 | E 9.3 | |
| Ieri h: 19:53 | Coperto | 25 | 22 | 83 | 1008 | 10 | E/NE 11.1 | |
| Ieri h: 18:53 | Sereno | 26 | 22 | 78 | 1008 | 10 | E 13 | |
| Ieri h: 17:53 | Nuvoloso | 27 | 22 | 74 | 1007 | 10 | E 13 | |
| Ieri h: 17:28 | Nuvoloso | 26 | 21 | 73 | 1007 | 10 | E 14.8 | |
| Ieri h: 16:53 | Coperto | 27 | 21 | 69 | 1008 | 10 | E 13 | |
| Ieri h: 16:04 | Molto Nuvoloso | 26 | 21 | 73 | 1008 | 10 | E 11.1 | |
| Ieri h: 15:53 | Nuvoloso | 26 | 21 | 73 | 1008 | 10 | E 14.8 | |
| Ieri h: 15:37 | Nuvoloso | 26 | 21 | 73 | 1008 | 10 | E 13 | |
| Ieri h: 14:53 | Molto Nuvoloso | 27 | 21 | 69 | 1009 | 10 | E 20.3 | |
| Ieri h: 13:53 | Coperto | 24 | 20 | 78 | 1009 | 10 | E/SE 18.5 | |
| Ieri h: 13:41 | Coperto | 24 | 20 | 78 | 1010 | 10 | E/SE 14.8 | |



